Time;durP1;ratioP1;P1;durP2;ratioP2;P2;SDS_P1;SDS_P2;PMS_P1;PMS_P2;Temp;Humidity;BMP_temperature;BMP_pressure;BME280_temperature;BME280_humidity;BME280_pressure;Samples;Min_cycle;Max_cycle;Signal;HPM_P1;HPM_P2
2022/09/09 00:01:09;;;;;;;18.10;11.15;;;14.50;99.90;;;;;;4884043;28;205520;-71
2022/09/09 00:03:57;;;;;;;19.33;10.15;;;14.50;99.90;;;;;;4978066;28;20050;-70
2022/09/09 00:06:42;;;;;;;17.45;9.63;;;14.40;99.90;;;;;;4936177;28;209401;-73
2022/09/09 00:09:21;;;;;;;17.67;10.35;;;14.40;99.90;;;;;;4979390;28;20054;-73
2022/09/09 00:12:03;;;;;;;17.88;10.48;;;14.40;99.90;;;;;;4937624;28;204044;-73
2022/09/09 00:14:37;;;;;;;18.20;10.85;;;14.40;99.90;;;;;;4972049;28;20058;-72
2022/09/09 00:17:14;;;;;;;19.85;11.00;;;14.40;99.90;;;;;;4930508;28;208608;-72
2022/09/09 00:20:02;;;;;;;18.08;10.77;;;14.40;99.90;;;;;;4983696;28;20058;-71
2022/09/09 00:22:34;;;;;;;18.50;10.45;;;14.30;99.90;;;;;;4910809;28;145249;-71
2022/09/09 00:25:13;;;;;;;17.10;10.60;;;14.30;99.90;;;;;;4916222;28;213578;-70
2022/09/09 00:27:39;;;;;;;16.80;10.27;;;14.30;99.90;;;;;;4955781;28;20389;-70
2022/09/09 00:30:27;;;;;;;16.63;10.20;;;14.30;99.90;;;;;;4918929;28;210513;-73
2022/09/09 00:32:58;;;;;;;17.88;10.50;;;14.30;99.90;;;;;;4945173;28;22747;-70
2022/09/09 00:35:29;;;;;;;20.52;11.10;;;14.30;99.90;;;;;;4911833;28;208528;-71
2022/09/09 00:38:01;;;;;;;18.83;10.27;;;14.20;99.90;;;;;;4949491;28;20774;-71
2022/09/09 00:40:39;;;;;;;17.70;10.20;;;14.20;99.90;;;;;;4918937;28;210246;-71
2022/09/09 00:43:30;;;;;;;16.65;10.10;;;14.20;99.90;;;;;;4956664;28;20066;-72
2022/09/09 00:46:37;;;;;;;18.25;9.88;;;14.20;99.90;;;;;;4911680;28;206563;-73
2022/09/09 00:49:35;;;;;;;15.60;9.73;;;14.20;99.90;;;;;;4979451;28;20043;-72
2022/09/09 00:52:22;;;;;;;16.75;9.82;;;14.10;99.90;;;;;;4929187;28;213131;-69
2022/09/09 00:55:07;;;;;;;17.02;9.18;;;14.10;99.90;;;;;;4975783;28;20513;-71
2022/09/09 00:57:35;;;;;;;15.02;9.73;;;14.10;99.90;;;;;;4924155;28;207203;-72
2022/09/09 01:00:37;;;;;;;16.60;9.90;;;14.10;99.90;;;;;;4932265;28;209297;-71
2022/09/09 01:03:28;;;;;;;17.23;10.68;;;14.00;99.90;;;;;;4968384;28;20142;-71
2022/09/09 01:06:15;;;;;;;21.60;11.32;;;14.00;99.90;;;;;;4940627;28;212305;-71
2022/09/09 01:09:09;;;;;;;17.73;9.88;;;14.00;99.90;;;;;;4979432;28;20046;-71
2022/09/09 01:12:02;;;;;;;17.10;9.95;;;14.00;99.90;;;;;;4942565;28;209746;-70
2022/09/09 01:14:34;;;;;;;21.15;10.02;;;14.00;99.90;;;;;;4978566;28;20054;-72
2022/09/09 01:17:27;;;;;;;15.40;9.40;;;14.00;99.90;;;;;;4945246;28;208867;-72
2022/09/09 01:20:06;;;;;;;15.98;9.50;;;14.00;99.90;;;;;;4980619;28;20054;-70
2022/09/09 01:22:53;;;;;;;19.13;9.95;;;13.90;99.90;;;;;;4945151;28;206415;-70
2022/09/09 01:25:49;;;;;;;18.00;10.40;;;13.90;99.90;;;;;;4940123;28;209381;-70
2022/09/09 01:28:27;;;;;;;19.92;10.95;;;14.00;99.90;;;;;;4981711;28;20054;-71
2022/09/09 01:30:56;;;;;;;17.67;9.95;;;14.00;99.90;;;;;;4944994;28;214106;-70
2022/09/09 01:33:22;;;;;;;16.60;10.20;;;14.00;99.90;;;;;;4981832;28;20063;-71
2022/09/09 01:36:00;;;;;;;18.15;10.10;;;14.00;99.90;;;;;;4929138;28;209134;-71
2022/09/09 01:38:28;;;;;;;16.98;10.02;;;14.00;99.90;;;;;;4984524;28;20057;-71
2022/09/09 01:40:55;;;;;;;15.48;10.10;;;14.00;99.90;;;;;;4934463;28;206487;-73
2022/09/09 01:43:22;;;;;;;16.27;9.38;;;14.00;99.90;;;;;;4976938;28;20054;-71
2022/09/09 01:45:52;;;;;;;17.00;9.93;;;14.00;99.90;;;;;;4933164;28;210363;-72
2022/09/09 01:48:20;;;;;;;17.02;10.02;;;14.00;99.90;;;;;;4983867;28;20137;-71
2022/09/09 01:50:46;;;;;;;17.88;10.02;;;14.00;99.90;;;;;;4948195;28;192355;-72
2022/09/09 01:53:14;;;;;;;15.70;9.15;;;14.00;99.90;;;;;;4979751;28;20058;-71
2022/09/09 01:55:45;;;;;;;17.08;10.13;;;14.10;99.90;;;;;;4938809;28;205798;-71
2022/09/09 01:58:39;;;;;;;21.48;9.45;;;14.00;99.90;;;;;;4973523;28;21527;-71
2022/09/09 02:01:18;;;;;;;15.18;9.00;;;14.10;99.90;;;;;;4928668;28;209635;-72
2022/09/09 02:03:51;;;;;;;15.15;9.13;;;14.10;99.90;;;;;;4981658;28;20046;-72
2022/09/09 02:06:32;;;;;;;16.73;8.50;;;14.10;99.90;;;;;;4949057;28;212310;-72
2022/09/09 02:09:04;;;;;;;16.20;9.05;;;14.10;99.90;;;;;;4980461;28;20061;-71
2022/09/09 02:11:30;;;;;;;;;;;14.10;99.90;;;;;;4933151;28;205862;-71
2022/09/09 02:14:19;;;;;;;19.20;8.65;;;14.20;99.90;;;;;;4979359;28;19922;-71
2022/09/09 02:17:01;;;;;;;16.15;8.38;;;14.20;99.90;;;;;;4925786;28;151612;-72
2022/09/09 02:19:35;;;;;;;16.10;8.98;;;14.20;99.90;;;;;;4986074;28;20054;-71
2022/09/09 02:22:01;;;;;;;20.27;8.80;;;14.20;99.90;;;;;;4961540;28;209700;-72
2022/09/09 02:24:33;;;;;;;17.88;8.57;;;14.20;99.90;;;;;;4979205;28;20051;-71
2022/09/09 02:27:03;;;;;;;16.73;8.50;;;14.20;99.90;;;;;;4951729;28;209291;-71
2022/09/09 02:29:41;;;;;;;18.30;8.52;;;14.30;99.90;;;;;;4983165;28;20627;-70
2022/09/09 02:32:14;;;;;;;16.48;7.93;;;14.30;99.90;;;;;;4954108;28;210046;-70
2022/09/09 02:34:44;;;;;;;16.70;8.20;;;14.30;99.90;;;;;;4987613;28;20042;-71
2022/09/09 02:37:12;;;;;;;14.93;7.35;;;14.30;99.90;;;;;;4921276;28;209653;-70
2022/09/09 02:39:39;;;;;;;15.70;7.57;;;14.40;99.90;;;;;;4986459;28;20075;-70
2022/09/09 02:42:05;;;;;;;16.35;7.18;;;14.40;99.90;;;;;;4942974;28;201496;-70
2022/09/09 02:44:32;;;;;;;15.20;7.50;;;14.40;99.90;;;;;;4975580;28;20499;-70
2022/09/09 02:47:24;;;;;;;14.45;7.43;;;14.40;99.90;;;;;;4931246;28;209833;-71
2022/09/09 02:50:14;;;;;;;15.95;6.90;;;14.40;99.90;;;;;;4999734;28;20423;-71
2022/09/09 02:53:16;;;;;;;13.90;6.60;;;14.50;99.90;;;;;;4935506;28;205556;-71
2022/09/09 02:55:48;;;;;;;16.83;6.90;;;14.50;99.90;;;;;;4934764;28;207764;-70
2022/09/09 02:58:17;;;;;;;13.43;6.50;;;14.50;99.90;;;;;;4972811;28;20054;-71
2022/09/09 03:00:47;;;;;;;14.05;6.32;;;14.50;99.90;;;;;;4930743;28;209365;-71
2022/09/09 03:03:15;;;;;;;14.30;7.00;;;14.60;99.90;;;;;;4972600;28;20070;-72
2022/09/09 03:05:43;;;;;;;16.65;7.22;;;14.60;99.90;;;;;;4933767;28;213108;-70
2022/09/09 03:08:09;;;;;;;25.75;6.93;;;14.60;99.90;;;;;;4982560;28;20070;-70
2022/09/09 03:10:36;;;;;;;18.08;6.88;;;14.60;99.90;;;;;;4939744;28;208862;-69
2022/09/09 03:13:05;;;;;;;17.48;7.10;;;14.60;99.90;;;;;;4980143;28;20050;-70
2022/09/09 03:15:33;;;;;;;18.13;6.70;;;14.60;99.90;;;;;;4934031;28;204844;-69
2022/09/09 03:17:59;;;;;;;15.95;6.95;;;14.60;99.90;;;;;;4981754;28;20392;-69
2022/09/09 03:20:27;;;;;;;14.02;6.60;;;14.60;99.90;;;;;;4942165;28;208982;-69
2022/09/09 03:22:54;;;;;;;17.25;6.95;;;14.60;99.90;;;;;;4989979;28;20101;-69
2022/09/09 03:25:25;;;;;;;13.20;6.35;;;14.50;99.90;;;;;;4928923;28;212048;-69
2022/09/09 03:27:54;;;;;;;15.93;6.13;;;14.50;99.90;;;;;;4981602;28;20038;-69
2022/09/09 03:30:24;;;;;;;12.02;5.75;;;14.50;99.90;;;;;;4939138;28;210022;-70
2022/09/09 03:32:51;;;;;;;14.30;6.13;;;14.50;99.90;;;;;;4968524;28;20050;-69
2022/09/09 03:35:18;;;;;;;12.77;5.60;;;14.50;99.90;;;;;;4938466;28;209431;-69
2022/09/09 03:37:45;;;;;;;13.13;6.00;;;14.50;99.90;;;;;;4975920;28;20067;-69
2022/09/09 03:40:11;;;;;;;18.40;7.10;;;14.50;99.90;;;;;;4938708;28;209990;-69
2022/09/09 03:42:38;;;;;;;15.15;6.30;;;14.50;99.90;;;;;;4997113;28;20058;-70
2022/09/09 03:45:06;;;;;;;16.10;6.25;;;14.50;99.90;;;;;;4933924;28;209777;-70
2022/09/09 03:47:33;;;;;;;16.52;7.03;;;14.50;99.90;;;;;;4998813;28;20057;-68
2022/09/09 03:49:59;;;;;;;14.65;6.30;;;14.50;99.90;;;;;;4949508;28;211939;-68
2022/09/09 03:52:26;;;;;;;16.58;6.65;;;14.50;99.90;;;;;;4962910;28;210449;-68
2022/09/09 03:54:53;;;;;;;13.55;6.75;;;14.50;99.90;;;;;;4981587;28;20066;-70
2022/09/09 03:57:20;;;;;;;14.57;7.03;;;14.50;99.90;;;;;;4945686;28;269099;-69
2022/09/09 03:59:46;;;;;;;15.15;6.43;;;14.50;99.90;;;;;;4980513;28;20046;-71
2022/09/09 04:02:12;;;;;;;17.38;7.10;;;14.50;99.90;;;;;;4950586;28;210238;-70
2022/09/09 04:04:38;;;;;;;14.32;5.95;;;14.50;99.90;;;;;;4972299;28;20063;-70
2022/09/09 04:07:06;;;;;;;14.65;6.35;;;14.50;99.90;;;;;;4917451;28;208297;-71
2022/09/09 04:09:33;;;;;;;15.40;6.70;;;14.50;99.90;;;;;;4978068;28;20077;-70
2022/09/09 04:11:59;;;;;;;12.68;5.95;;;14.40;99.90;;;;;;4949601;28;210548;-70
2022/09/09 04:14:28;;;;;;;16.55;6.70;;;14.40;99.90;;;;;;4980838;28;20050;-70
2022/09/09 04:16:57;;;;;;;16.95;7.13;;;14.40;99.90;;;;;;4939229;28;208268;-71
2022/09/09 04:19:23;;;;;;;15.15;6.93;;;14.40;99.90;;;;;;4980985;28;20054;-70
2022/09/09 04:21:51;;;;;;;14.63;7.15;;;14.40;99.90;;;;;;4929773;28;209123;-70
2022/09/09 04:24:17;;;;;;;15.23;7.97;;;14.40;99.90;;;;;;4978099;28;20046;-71
2022/09/09 04:26:43;;;;;;;13.63;7.70;;;14.40;99.90;;;;;;4951290;28;210628;-71
2022/09/09 04:29:10;;;;;;;17.90;8.02;;;14.40;99.90;;;;;;4978970;28;20058;-70
2022/09/09 04:31:37;;;;;;;17.92;8.63;;;14.40;99.90;;;;;;4943791;28;212438;-70
2022/09/09 04:34:05;;;;;;;14.20;7.65;;;14.40;99.90;;;;;;4987199;28;20536;-71
2022/09/09 04:36:32;;;;;;;13.73;7.93;;;14.40;99.90;;;;;;4944744;28;205909;-71
2022/09/09 04:38:58;;;;;;;14.57;8.18;;;14.40;99.90;;;;;;4989423;28;20055;-70
2022/09/09 04:41:24;;;;;;;15.48;8.55;;;14.40;99.90;;;;;;4936452;28;208937;-71
2022/09/09 04:43:52;;;;;;;17.92;8.60;;;14.40;99.90;;;;;;4975203;28;20464;-71
2022/09/09 04:46:18;;;;;;;17.08;9.05;;;14.40;99.90;;;;;;4936756;28;214699;-71
2022/09/09 04:48:45;;;;;;;16.67;8.52;;;14.40;99.90;;;;;;4991199;28;20035;-71
2022/09/09 04:51:13;;;;;;;19.02;9.40;;;14.40;99.90;;;;;;4966298;28;206587;-71
2022/09/09 04:53:40;;;;;;;15.70;9.15;;;14.40;99.90;;;;;;4989936;28;20435;-71
2022/09/09 04:56:09;;;;;;;19.23;9.60;;;14.40;99.90;;;;;;4939337;28;209344;-71
2022/09/09 04:58:36;;;;;;;17.33;9.30;;;14.40;99.90;;;;;;4986336;28;20069;-71
2022/09/09 05:01:10;;;;;;;24.95;11.13;;;14.30;99.90;;;;;;4943926;28;208526;-72
2022/09/09 05:03:37;;;;;;;18.00;10.20;;;14.40;99.90;;;;;;4979775;28;20054;-73
2022/09/09 05:06:15;;;;;;;18.63;10.50;;;14.30;99.90;;;;;;4929009;28;206359;-70
2022/09/09 05:08:42;;;;;;;20.98;10.57;;;14.30;99.90;;;;;;4979194;28;20054;-71
2022/09/09 05:11:22;;;;;;;20.25;10.65;;;14.30;99.90;;;;;;4933422;28;195842;-70
2022/09/09 05:13:50;;;;;;;19.75;11.43;;;14.30;99.90;;;;;;4984765;28;20054;-70
2022/09/09 05:16:17;;;;;;;18.70;11.60;;;14.30;99.90;;;;;;4946623;28;209940;-72
2022/09/09 05:18:44;;;;;;;20.88;11.32;;;14.30;99.90;;;;;;4971198;28;20058;-70
2022/09/09 05:21:11;;;;;;;18.58;11.75;;;14.30;99.90;;;;;;4945941;28;209501;-70
2022/09/09 05:23:38;;;;;;;22.05;12.20;;;14.30;99.90;;;;;;4980615;28;20046;-71
2022/09/09 05:26:05;;;;;;;26.63;12.40;;;14.30;99.90;;;;;;4934904;28;209095;-71
2022/09/09 05:28:33;;;;;;;20.73;11.93;;;14.30;99.90;;;;;;4973950;28;20050;-71
2022/09/09 05:31:03;;;;;;;20.33;12.63;;;14.30;99.90;;;;;;4926542;28;209962;-71
2022/09/09 05:33:30;;;;;;;20.88;11.23;;;14.30;99.90;;;;;;4975174;28;20055;-71
2022/09/09 05:36:05;;;;;;;22.45;11.55;;;14.30;99.90;;;;;;4939510;28;209762;-71
2022/09/09 05:38:32;;;;;;;20.20;11.35;;;14.40;99.90;;;;;;4983199;28;20111;-71
2022/09/09 05:40:59;;;;;;;19.23;11.70;;;14.40;99.90;;;;;;4941160;28;209238;-70
2022/09/09 05:43:27;;;;;;;22.80;11.40;;;14.30;99.90;;;;;;4985795;28;20046;-70
2022/09/09 05:46:07;;;;;;;17.88;10.73;;;14.30;99.90;;;;;;4950694;28;159415;-70
2022/09/09 05:48:37;;;;;;;19.02;10.60;;;14.30;99.90;;;;;;4981283;28;20125;-70
2022/09/09 05:51:04;;;;;;;18.50;10.73;;;14.30;99.90;;;;;;4943839;28;214752;-71
2022/09/09 05:53:34;;;;;;;16.98;10.32;;;14.30;99.90;;;;;;4980132;28;20050;-71
2022/09/09 05:56:03;;;;;;;19.47;9.83;;;14.30;99.90;;;;;;4931650;28;206757;-71
2022/09/09 05:58:33;;;;;;;16.80;10.63;;;14.30;99.90;;;;;;4981182;28;20062;-71
2022/09/09 06:01:09;;;;;;;18.45;9.93;;;14.30;99.90;;;;;;4944108;28;209418;-70
2022/09/09 06:03:37;;;;;;;20.75;10.77;;;14.40;99.90;;;;;;4982757;28;20059;-72
2022/09/09 06:06:06;;;;;;;20.20;10.00;;;14.40;99.90;;;;;;4946898;28;212905;-70
2022/09/09 06:08:38;;;;;;;19.58;10.38;;;14.40;99.90;;;;;;4993847;28;20060;-70
2022/09/09 06:11:10;;;;;;;16.77;9.93;;;14.40;99.90;;;;;;4948153;28;209794;-71
2022/09/09 06:13:38;;;;;;;15.70;9.50;;;14.40;99.90;;;;;;4996639;28;20057;-71
2022/09/09 06:16:07;;;;;;;20.20;10.77;;;14.50;99.90;;;;;;4939037;28;206830;-71
2022/09/09 06:18:34;;;;;;;17.52;10.23;;;14.50;99.90;;;;;;4987992;28;20058;-71
2022/09/09 06:21:04;;;;;;;17.90;9.90;;;14.50;99.90;;;;;;4937268;28;206959;-71
2022/09/09 06:23:30;;;;;;;19.48;10.32;;;14.60;99.90;;;;;;4987936;28;20061;-71
2022/09/09 06:26:09;;;;;;;15.60;9.77;;;14.60;99.90;;;;;;4942903;28;208948;-70
2022/09/09 06:28:36;;;;;;;15.88;9.75;;;14.70;99.90;;;;;;4977528;28;20067;-71
2022/09/09 06:31:05;;;;;;;14.55;9.60;;;14.70;99.90;;;;;;4943074;28;209670;-71
2022/09/09 06:33:37;;;;;;;14.38;9.35;;;14.70;99.90;;;;;;4981853;28;20057;-72
2022/09/09 06:36:04;;;;;;;22.23;10.98;;;14.70;99.90;;;;;;4938423;28;206897;-70
2022/09/09 06:38:30;;;;;;;14.45;9.10;;;14.80;99.90;;;;;;4971770;28;20431;-71
2022/09/09 06:40:59;;;;;;;14.73;8.80;;;14.90;99.90;;;;;;4939974;28;216799;-71
2022/09/09 06:43:26;;;;;;;14.45;8.85;;;14.90;99.90;;;;;;4977980;28;20050;-70
2022/09/09 06:46:00;;;;;;;16.15;9.20;;;14.90;99.90;;;;;;4942598;28;212541;-71
2022/09/09 06:48:30;;;;;;;12.52;8.13;;;14.90;99.90;;;;;;4987527;28;20047;-72
2022/09/09 06:51:07;;;;;;;15.63;9.13;;;14.90;99.90;;;;;;4944643;28;208982;-71
2022/09/09 06:53:34;;;;;;;15.15;8.63;;;14.90;99.90;;;;;;4988950;28;20046;-71
2022/09/09 06:56:30;;;;;;;15.65;8.40;;;14.90;99.90;;;;;;4949398;28;207579;-72
2022/09/09 06:58:58;;;;;;;17.92;8.65;;;15.00;99.90;;;;;;4979191;28;20054;-71
2022/09/09 07:01:27;;;;;;;14.80;9.05;;;15.00;99.90;;;;;;4948380;28;210716;-72
2022/09/09 07:03:55;;;;;;;14.35;8.00;;;15.10;99.90;;;;;;4989864;28;20061;-72
2022/09/09 07:06:24;;;;;;;15.00;8.77;;;15.10;99.90;;;;;;4944573;28;209721;-72
2022/09/09 07:08:52;;;;;;;15.43;8.82;;;15.10;99.90;;;;;;4988930;28;20423;-72
2022/09/09 07:11:20;;;;;;;15.82;8.30;;;15.10;99.90;;;;;;4940073;28;227850;-72
2022/09/09 07:13:47;;;;;;;14.52;7.90;;;15.20;99.90;;;;;;4985992;28;20070;-72
2022/09/09 07:16:16;;;;;;;14.80;8.43;;;15.30;99.90;;;;;;4930566;28;204261;-72
2022/09/09 07:18:43;;;;;;;13.02;7.38;;;15.40;99.90;;;;;;4980827;28;20586;-72
2022/09/09 07:21:11;;;;;;;13.10;7.80;;;15.40;99.90;;;;;;4944065;28;208082;-72
2022/09/09 07:23:39;;;;;;;15.77;7.95;;;15.40;99.90;;;;;;4984233;28;20061;-72
2022/09/09 07:26:21;;;;;;;14.60;7.55;;;15.50;99.90;;;;;;4947103;28;209000;-72
2022/09/09 07:28:49;;;;;;;14.82;7.40;;;15.60;99.90;;;;;;4984290;28;20050;-72
2022/09/09 07:31:18;;;;;;;15.65;7.85;;;15.70;99.90;;;;;;4947682;28;206382;-72
2022/09/09 07:33:45;;;;;;;13.25;8.48;;;15.80;99.90;;;;;;4981689;28;20062;-72
2022/09/09 07:36:15;;;;;;;13.52;7.57;;;15.90;99.90;;;;;;4931237;28;208827;-72
2022/09/09 07:38:47;;;;;;;15.40;7.77;;;16.00;99.90;;;;;;4979608;28;20061;-72
2022/09/09 07:41:17;;;;;;;13.65;7.50;;;16.10;99.90;;;;;;4954508;28;134657;-72
2022/09/09 07:43:45;;;;;;;15.20;6.80;;;16.40;99.90;;;;;;4981233;28;20054;-72
2022/09/09 07:46:14;;;;;;;13.73;6.38;;;16.50;99.90;;;;;;4945808;28;212388;-72
2022/09/09 07:48:52;;;;;;;15.32;8.18;;;16.70;99.90;;;;;;4983887;28;20058;-72
2022/09/09 07:51:24;;;;;;;11.68;6.13;;;17.30;99.90;;;;;;4941804;28;210117;-72
2022/09/09 07:53:59;;;;;;;11.27;5.50;;;17.50;99.90;;;;;;4983980;28;20599;-71
2022/09/09 07:56:26;;;;;;;10.73;5.13;;;17.40;99.90;;;;;;4935863;28;206931;-71
2022/09/09 07:58:55;;;;;;;11.00;5.20;;;17.30;99.90;;;;;;4981345;28;20077;-71
2022/09/09 08:01:22;;;;;;;13.77;5.00;;;17.40;99.90;;;;;;4934783;28;205926;-72
2022/09/09 08:04:10;;;;;;;14.13;4.93;;;17.50;99.90;;;;;;4981392;28;20051;-71
2022/09/09 08:06:39;;;;;;;11.65;4.72;;;17.80;99.90;;;;;;4954474;28;213072;-71
2022/09/09 08:09:07;;;;;;;11.30;4.75;;;17.60;99.90;;;;;;4986843;28;20043;-71
2022/09/09 08:11:35;;;;;;;9.98;4.80;;;17.60;99.90;;;;;;4927735;28;206297;-71
2022/09/09 08:14:03;;;;;;;12.65;4.20;;;17.90;99.90;;;;;;4982412;28;20504;-72
2022/09/09 08:16:32;;;;;;;12.00;4.60;;;17.80;99.90;;;;;;4930366;28;205732;-70
2022/09/09 08:18:59;;;;;;;13.95;5.18;;;17.60;99.90;;;;;;4983897;28;20055;-71
2022/09/09 08:21:30;;;;;;;11.73;4.38;;;17.50;99.90;;;;;;4949021;28;215352;-71
2022/09/09 08:23:57;;;;;;;11.35;4.53;;;17.60;99.90;;;;;;4988913;28;20051;-71
2022/09/09 08:26:32;;;;;;;10.82;4.78;;;17.60;99.90;;;;;;4945525;28;206832;-71
2022/09/09 08:28:59;;;;;;;11.88;4.90;;;17.60;99.90;;;;;;4984887;28;20046;-71
2022/09/09 08:31:34;;;;;;;14.70;4.97;;;17.70;99.90;;;;;;4955612;28;209895;-70
2022/09/09 08:34:03;;;;;;;12.07;4.60;;;18.00;99.90;;;;;;4976397;28;20054;-71
2022/09/09 08:36:33;;;;;;;10.75;4.50;;;18.40;99.90;;;;;;4936174;28;209765;-71
2022/09/09 08:39:00;;;;;;;14.45;4.30;;;18.70;99.90;;;;;;4981491;28;20046;-71
2022/09/09 08:41:35;;;;;;;11.68;4.28;;;18.90;99.90;;;;;;4947344;28;213031;-72
2022/09/09 08:44:32;;;;;;;11.48;3.95;;;19.30;99.90;;;;;;4988697;28;20045;-71
2022/09/09 08:47:35;;;;;;;11.80;3.78;;;19.70;99.90;;;;;;4862922;28;217174;-71
2022/09/09 08:50:25;;;;;;;9.93;3.38;;;19.80;99.90;;;;;;4881471;29;209214;-71
2022/09/09 08:53:16;;;;;;;13.85;3.55;;;20.40;99.90;;;;;;4928078;29;20055;-72
2022/09/09 08:55:52;;;;;;;16.98;3.80;;;21.00;99.90;;;;;;4883641;29;206801;-72
2022/09/09 08:58:25;;;;;;;10.52;3.22;;;21.30;99.90;;;;;;4925790;29;20735;-72
2022/09/09 09:01:13;;;;;;;11.00;3.33;;;21.30;99.90;;;;;;4874995;29;206422;-71
2022/09/09 09:04:07;;;;;;;10.13;3.30;;;21.30;99.90;;;;;;4911982;29;20529;-72
2022/09/09 09:07:04;;;;;;;12.10;3.45;;;21.80;99.90;;;;;;4858677;29;206801;-72
2022/09/09 09:09:36;;;;;;;12.93;3.30;;;22.30;99.90;;;;;;4923899;29;20110;-72
2022/09/09 09:12:14;;;;;;;10.75;3.08;;;22.60;99.90;;;;;;4876535;29;209712;-72
2022/09/09 09:14:43;;;;;;;10.68;3.03;;;22.20;99.90;;;;;;4928111;29;20058;-70
2022/09/09 09:17:16;;;;;;;14.02;3.30;;;22.10;99.90;;;;;;4865380;29;206614;-70
2022/09/09 09:19:43;;;;;;;13.40;3.47;;;21.70;99.90;;;;;;4909784;29;20052;-72
2022/09/09 09:22:31;;;;;;;10.98;3.30;;;21.70;99.90;;;;;;4868463;29;205906;-72
2022/09/09 09:25:21;;;;;;;11.40;2.72;;;22.10;99.90;;;;;;4950076;28;209220;-71
2022/09/09 09:28:09;;;;;;;13.23;3.10;;;22.30;99.90;;;;;;4912037;28;210035;-71
2022/09/09 09:30:41;;;;;;;12.73;3.00;;;22.10;99.90;;;;;;4922655;28;209680;-72
2022/09/09 09:33:46;;;;;;;13.10;2.85;;;22.30;99.90;;;;;;4983399;28;20034;-72
2022/09/09 09:36:15;;;;;;;13.45;2.85;;;22.30;99.90;;;;;;4931677;28;213539;-71
2022/09/09 09:38:56;;;;;;;10.82;2.90;;;22.00;99.90;;;;;;4981091;28;20050;-72
2022/09/09 09:41:41;;;;;;;13.02;2.60;;;21.70;99.90;;;;;;4911200;28;208951;-72
2022/09/09 09:44:31;;;;;;;14.40;2.65;;;21.60;99.90;;;;;;4961808;28;20054;-73
2022/09/09 09:47:18;;;;;;;11.10;2.65;;;21.40;99.90;;;;;;4913541;28;201876;-72
2022/09/09 09:49:55;;;;;;;13.10;2.75;;;21.20;99.90;;;;;;4984290;28;20051;-72
2022/09/09 09:52:24;;;;;;;10.45;2.63;;;21.20;99.90;;;;;;4915606;28;200585;-73
2022/09/09 09:54:52;;;;;;;13.38;3.00;;;20.80;99.90;;;;;;4986519;28;20428;-72
2022/09/09 09:57:24;;;;;;;12.15;2.65;;;20.60;99.90;;;;;;4934367;28;182857;-73
2022/09/09 10:00:13;;;;;;;13.07;2.67;;;20.60;99.90;;;;;;4971148;28;20441;-72
2022/09/09 10:02:43;;;;;;;14.88;2.70;;;20.40;99.90;;;;;;4928209;28;188812;-72
2022/09/09 10:05:16;;;;;;;13.10;3.07;;;20.20;99.90;;;;;;4936490;28;212586;-73
2022/09/09 10:07:45;;;;;;;12.85;2.42;;;20.20;99.90;;;;;;4998768;28;20046;-72
2022/09/09 10:10:22;;;;;;;14.38;2.70;;;20.00;99.90;;;;;;4945051;28;208979;-71
2022/09/09 10:13:07;;;;;;;11.73;2.35;;;19.80;99.90;;;;;;4983156;28;20053;-74
2022/09/09 10:15:45;;;;;;;10.98;2.30;;;19.90;99.90;;;;;;4936386;28;206270;-73
2022/09/09 10:18:49;;;;;;;13.13;2.17;;;19.90;99.90;;;;;;5003291;28;20061;-73
2022/09/09 10:21:28;;;;;;;11.07;2.42;;;20.40;99.90;;;;;;4915808;28;206372;-72
2022/09/09 10:24:05;;;;;;;10.40;2.40;;;20.70;99.90;;;;;;4987489;28;20649;-73
2022/09/09 10:26:47;;;;;;;9.98;2.00;;;21.10;99.90;;;;;;4916817;28;207874;-73
2022/09/09 10:29:22;;;;;;;9.23;1.77;;;21.10;99.90;;;;;;4964826;28;20078;-72
2022/09/09 10:32:06;;;;;;;12.68;2.35;;;20.80;99.90;;;;;;4911722;28;206676;-73
2022/09/09 10:34:52;;;;;;;10.75;2.15;;;21.00;99.90;;;;;;4976968;28;20513;-73
2022/09/09 10:37:36;;;;;;;11.07;2.08;;;21.20;99.90;;;;;;4914064;28;208811;-73
2022/09/09 10:40:31;;;;;;;11.27;1.98;;;21.10;99.90;;;;;;4932930;28;211864;-73
2022/09/09 10:43:27;;;;;;;12.57;2.13;;;20.90;99.90;;;;;;4911980;29;20435;-73
2022/09/09 10:46:05;;;;;;;9.27;1.60;;;20.70;99.90;;;;;;4888489;28;206096;-73
2022/09/09 10:49:06;;;;;;;8.93;1.70;;;20.60;99.90;;;;;;4937585;28;20517;-73
2022/09/09 10:51:56;;;;;;;12.73;2.13;;;20.60;99.90;;;;;;4898629;28;208872;-73
2022/09/09 10:54:51;;;;;;;12.90;2.03;;;21.30;99.90;;;;;;4911231;29;20067;-73
2022/09/09 10:57:47;;;;;;;13.85;2.20;;;21.50;99.90;;;;;;4887487;29;205876;-74
2022/09/09 11:00:21;;;;;;;9.90;2.03;;;22.20;99.90;;;;;;4883158;28;209436;-72
2022/09/09 11:03:00;;;;;;;10.52;2.10;;;22.70;99.90;;;;;;4920953;29;20686;-73
2022/09/09 11:05:45;;;;;;;12.80;2.15;;;22.60;99.90;;;;;;4861822;28;206331;-74
2022/09/09 11:08:15;;;;;;;8.63;1.70;;;22.40;99.90;;;;;;4912483;29;20068;-73
2022/09/09 11:11:02;;;;;;;8.37;1.70;;;22.40;99.90;;;;;;4886925;29;206606;-72
2022/09/09 11:13:52;;;;;;;9.50;1.80;;;22.20;99.90;;;;;;4911461;29;20303;-73
2022/09/09 11:16:27;;;;;;;10.55;1.80;;;21.60;99.90;;;;;;4904536;28;205447;-73
2022/09/09 11:19:03;;;;;;;11.82;2.20;;;21.50;99.90;;;;;;4947642;28;20062;-73
2022/09/09 11:21:35;;;;;;;11.20;1.85;;;21.20;99.90;;;;;;4924871;28;207213;-74
2022/09/09 11:24:09;;;;;;;9.18;1.80;;;21.30;99.90;;;;;;4979987;28;20058;-74
2022/09/09 11:26:45;;;;;;;10.23;1.70;;;21.50;99.90;;;;;;4943713;28;214078;-73
2022/09/09 11:29:26;;;;;;;10.73;1.95;;;21.60;99.90;;;;;;4985829;28;20528;-74
2022/09/09 11:32:08;;;;;;;11.27;1.92;;;21.70;99.90;;;;;;4930582;28;206547;-72
2022/09/09 11:34:42;;;;;;;11.10;1.88;;;21.70;99.90;;;;;;4978326;28;20054;-74
2022/09/09 11:37:23;;;;;;;12.05;1.92;;;21.70;99.90;;;;;;4921822;28;212361;-74
2022/09/09 11:40:14;;;;;;;10.55;2.00;;;21.40;99.90;;;;;;4985681;28;20535;-74
2022/09/09 11:42:41;;;;;;;10.90;2.00;;;21.30;99.90;;;;;;4916906;28;157137;-74
2022/09/09 11:45:28;;;;;;;10.40;1.70;;;21.10;99.90;;;;;;4940203;28;209201;-73
2022/09/09 11:48:05;;;;;;;11.20;1.80;;;21.00;99.90;;;;;;4981221;28;20069;-73
2022/09/09 11:50:34;;;;;;;11.50;1.80;;;20.80;99.90;;;;;;4942610;28;179597;-73
2022/09/09 11:53:14;;;;;;;9.60;1.63;;;20.70;99.90;;;;;;4969776;28;20098;-73
2022/09/09 11:55:40;;;;;;;9.68;1.70;;;20.70;99.90;;;;;;4934982;28;205790;-73
2022/09/09 11:58:28;;;;;;;10.73;1.52;;;20.80;99.90;;;;;;4978277;28;20137;-73
2022/09/09 12:00:54;;;;;;;9.35;1.63;;;20.70;99.90;;;;;;4937164;28;208270;-74
2022/09/09 12:03:42;;;;;;;9.40;1.85;;;20.50;99.90;;;;;;4993935;28;20054;-74
2022/09/09 12:06:25;;;;;;;9.43;2.25;;;20.60;99.90;;;;;;4956545;28;207294;-73
2022/09/09 12:08:56;;;;;;;13.48;2.25;;;20.70;99.90;;;;;;4990677;28;20424;-73
2022/09/09 12:11:28;;;;;;;9.68;1.73;;;20.60;99.90;;;;;;4939791;28;213209;-74
2022/09/09 12:14:00;;;;;;;10.27;1.80;;;20.70;99.90;;;;;;4988494;28;20050;-74
2022/09/09 12:16:38;;;;;;;10.70;2.20;;;20.90;99.90;;;;;;4946652;28;210618;-74
2022/09/09 12:19:21;;;;;;;12.68;2.17;;;21.20;99.90;;;;;;4967264;28;20061;-73
2022/09/09 12:22:02;;;;;;;9.90;1.83;;;21.40;99.90;;;;;;4913416;28;205135;-74
2022/09/09 12:24:44;;;;;;;10.75;1.58;;;21.50;99.90;;;;;;4958676;28;20067;-74
2022/09/09 12:27:25;;;;;;;14.13;1.95;;;21.70;99.90;;;;;;4902683;28;205997;-74
2022/09/09 12:29:58;;;;;;;9.63;1.63;;;21.70;99.90;;;;;;4943993;28;20055;-74
2022/09/09 12:32:25;;;;;;;9.43;1.80;;;21.70;99.90;;;;;;4920439;28;162211;-73
2022/09/09 12:34:53;;;;;;;12.60;2.28;;;21.80;99.90;;;;;;4961353;28;20051;-75
2022/09/09 12:37:46;;;;;;;9.48;1.60;;;22.10;99.90;;;;;;4911123;28;255103;-73
2022/09/09 12:40:35;;;;;;;11.23;1.98;;;22.90;99.90;;;;;;4920082;28;210269;-72
2022/09/09 12:43:02;;;;;;;10.82;1.58;;;23.30;99.90;;;;;;4943647;28;20051;-72
2022/09/09 12:45:33;;;;;;;10.65;2.00;;;23.00;99.90;;;;;;4918999;28;206965;-74
2022/09/09 12:48:08;;;;;;;9.73;1.67;;;22.70;99.90;;;;;;4934704;28;20050;-73
2022/09/09 12:50:43;;;;;;;9.52;1.92;;;22.60;99.90;;;;;;4916629;28;210077;-72
2022/09/09 12:53:26;;;;;;;10.40;1.83;;;22.50;99.90;;;;;;4954348;28;20101;-74
2022/09/09 12:56:04;;;;;;;10.07;1.75;;;22.40;99.90;;;;;;4940091;28;206904;-74
2022/09/09 12:58:34;;;;;;;10.82;1.90;;;23.00;99.90;;;;;;4964078;28;20054;-74
2022/09/09 13:01:04;;;;;;;12.05;2.10;;;23.80;99.90;;;;;;4916556;28;210640;-74
2022/09/09 13:03:32;;;;;;;8.65;1.60;;;24.40;99.90;;;;;;4958328;28;20050;-73
2022/09/09 13:06:11;;;;;;;10.48;1.80;;;24.70;99.90;;;;;;4921273;28;226597;-74
2022/09/09 13:08:38;;;;;;;8.43;1.58;;;24.50;99.90;;;;;;4971609;28;20052;-75